sensor_id;sensor_type;location;lat;lon;timestamp;temperature;humidity
79356;SHT31;68825;51.978;5.654;2024-02-04T00:00:12;12.5;81.5
79356;SHT31;68825;51.978;5.654;2024-02-04T00:02:41;12.5;81.5
79356;SHT31;68825;51.978;5.654;2024-02-04T00:05:09;12.4;81.6
79356;SHT31;68825;51.978;5.654;2024-02-04T00:07:38;12.4;81.7
79356;SHT31;68825;51.978;5.654;2024-02-04T00:10:09;12.4;81.6
79356;SHT31;68825;51.978;5.654;2024-02-04T00:12:38;12.4;81.7
79356;SHT31;68825;51.978;5.654;2024-02-04T00:15:08;12.4;81.9
79356;SHT31;68825;51.978;5.654;2024-02-04T00:17:36;12.4;82.0
79356;SHT31;68825;51.978;5.654;2024-02-04T00:20:06;12.4;82.2
79356;SHT31;68825;51.978;5.654;2024-02-04T00:22:35;12.4;82.0
79356;SHT31;68825;51.978;5.654;2024-02-04T00:25:04;12.4;82.0
79356;SHT31;68825;51.978;5.654;2024-02-04T00:27:33;12.4;82.0
79356;SHT31;68825;51.978;5.654;2024-02-04T00:30:02;12.4;81.9
79356;SHT31;68825;51.978;5.654;2024-02-04T00:32:31;12.4;82.0
79356;SHT31;68825;51.978;5.654;2024-02-04T00:35:01;12.4;81.8
79356;SHT31;68825;51.978;5.654;2024-02-04T00:37:30;12.4;81.9
79356;SHT31;68825;51.978;5.654;2024-02-04T00:39:58;12.4;82.0
79356;SHT31;68825;51.978;5.654;2024-02-04T00:42:27;12.4;82.0
79356;SHT31;68825;51.978;5.654;2024-02-04T00:44:56;12.4;82.1
79356;SHT31;68825;51.978;5.654;2024-02-04T00:47:24;12.4;82.1
79356;SHT31;68825;51.978;5.654;2024-02-04T00:49:53;12.4;82.1
79356;SHT31;68825;51.978;5.654;2024-02-04T00:52:22;12.4;82.1
79356;SHT31;68825;51.978;5.654;2024-02-04T00:54:52;12.4;82.1
79356;SHT31;68825;51.978;5.654;2024-02-04T00:57:21;12.4;82.2
79356;SHT31;68825;51.978;5.654;2024-02-04T00:59:51;12.4;82.2
79356;SHT31;68825;51.978;5.654;2024-02-04T01:02:19;12.4;82.2
79356;SHT31;68825;51.978;5.654;2024-02-04T01:04:47;12.4;82.2
79356;SHT31;68825;51.978;5.654;2024-02-04T01:07:17;12.4;82.3
79356;SHT31;68825;51.978;5.654;2024-02-04T01:09:48;12.4;82.2
79356;SHT31;68825;51.978;5.654;2024-02-04T01:12:16;12.4;82.2
79356;SHT31;68825;51.978;5.654;2024-02-04T01:14:45;12.4;82.2
79356;SHT31;68825;51.978;5.654;2024-02-04T01:17:14;12.4;82.2
79356;SHT31;68825;51.978;5.654;2024-02-04T01:19:42;12.4;82.2
79356;SHT31;68825;51.978;5.654;2024-02-04T01:22:11;12.4;82.2
79356;SHT31;68825;51.978;5.654;2024-02-04T01:24:39;12.4;82.2
79356;SHT31;68825;51.978;5.654;2024-02-04T01:27:08;12.4;82.0
79356;SHT31;68825;51.978;5.654;2024-02-04T01:29:36;12.4;82.0
79356;SHT31;68825;51.978;5.654;2024-02-04T01:32:05;12.4;81.9
79356;SHT31;68825;51.978;5.654;2024-02-04T01:34:34;12.5;81.6
79356;SHT31;68825;51.978;5.654;2024-02-04T01:37:03;12.5;81.5
79356;SHT31;68825;51.978;5.654;2024-02-04T01:39:31;12.5;81.4
79356;SHT31;68825;51.978;5.654;2024-02-04T01:42:00;12.5;81.4
79356;SHT31;68825;51.978;5.654;2024-02-04T01:44:29;12.6;81.3
79356;SHT31;68825;51.978;5.654;2024-02-04T01:46:58;12.6;80.9
79356;SHT31;68825;51.978;5.654;2024-02-04T01:49:27;12.6;80.8
79356;SHT31;68825;51.978;5.654;2024-02-04T01:51:57;12.6;80.6
79356;SHT31;68825;51.978;5.654;2024-02-04T01:54:27;12.6;80.5
79356;SHT31;68825;51.978;5.654;2024-02-04T01:56:58;12.6;80.2
79356;SHT31;68825;51.978;5.654;2024-02-04T01:59:29;12.6;80.0
79356;SHT31;68825;51.978;5.654;2024-02-04T02:01:59;12.6;80.0
79356;SHT31;68825;51.978;5.654;2024-02-04T02:04:29;12.7;79.9
79356;SHT31;68825;51.978;5.654;2024-02-04T02:06:57;12.7;79.8
79356;SHT31;68825;51.978;5.654;2024-02-04T02:09:27;12.7;79.7
79356;SHT31;68825;51.978;5.654;2024-02-04T02:12:01;12.7;79.7
79356;SHT31;68825;51.978;5.654;2024-02-04T02:14:35;12.7;79.7
79356;SHT31;68825;51.978;5.654;2024-02-04T02:17:07;12.7;79.7
79356;SHT31;68825;51.978;5.654;2024-02-04T02:19:47;12.7;79.4
79356;SHT31;68825;51.978;5.654;2024-02-04T02:22:26;12.7;79.5
79356;SHT31;68825;51.978;5.654;2024-02-04T02:24:57;12.7;79.5
79356;SHT31;68825;51.978;5.654;2024-02-04T02:27:27;12.7;79.4
79356;SHT31;68825;51.978;5.654;2024-02-04T02:29:55;12.7;79.3
79356;SHT31;68825;51.978;5.654;2024-02-04T02:32:24;12.7;79.5
79356;SHT31;68825;51.978;5.654;2024-02-04T02:34:53;12.7;79.4
79356;SHT31;68825;51.978;5.654;2024-02-04T02:37:27;12.7;79.3
79356;SHT31;68825;51.978;5.654;2024-02-04T02:40:05;12.7;79.2
79356;SHT31;68825;51.978;5.654;2024-02-04T02:42:34;12.7;79.1
79356;SHT31;68825;51.978;5.654;2024-02-04T02:45:08;12.6;79.2
79356;SHT31;68825;51.978;5.654;2024-02-04T02:47:38;12.6;79.5
79356;SHT31;68825;51.978;5.654;2024-02-04T02:50:08;12.6;79.5
79356;SHT31;68825;51.978;5.654;2024-02-04T02:52:37;12.6;79.8
79356;SHT31;68825;51.978;5.654;2024-02-04T02:55:06;12.6;79.8
79356;SHT31;68825;51.978;5.654;2024-02-04T02:57:35;12.6;79.9
79356;SHT31;68825;51.978;5.654;2024-02-04T03:00:04;12.6;79.8
79356;SHT31;68825;51.978;5.654;2024-02-04T03:02:33;12.6;79.8
79356;SHT31;68825;51.978;5.654;2024-02-04T03:05:01;12.6;79.8
79356;SHT31;68825;51.978;5.654;2024-02-04T03:07:30;12.6;79.9
79356;SHT31;68825;51.978;5.654;2024-02-04T03:10:01;12.6;79.8
79356;SHT31;68825;51.978;5.654;2024-02-04T03:12:29;12.6;79.9
79356;SHT31;68825;51.978;5.654;2024-02-04T03:14:58;12.6;79.8
79356;SHT31;68825;51.978;5.654;2024-02-04T03:17:26;12.6;79.8
79356;SHT31;68825;51.978;5.654;2024-02-04T03:19:55;12.6;79.6
79356;SHT31;68825;51.978;5.654;2024-02-04T03:22:23;12.6;79.2
79356;SHT31;68825;51.978;5.654;2024-02-04T03:24:52;12.6;79.0
79356;SHT31;68825;51.978;5.654;2024-02-04T03:27:20;12.6;78.9
79356;SHT31;68825;51.978;5.654;2024-02-04T03:29:49;12.5;78.7
79356;SHT31;68825;51.978;5.654;2024-02-04T03:32:19;12.5;78.4
79356;SHT31;68825;51.978;5.654;2024-02-04T03:34:48;12.5;78.2
79356;SHT31;68825;51.978;5.654;2024-02-04T03:37:17;12.5;77.9
79356;SHT31;68825;51.978;5.654;2024-02-04T03:39:47;12.4;77.6
79356;SHT31;68825;51.978;5.654;2024-02-04T03:42:15;12.4;77.5
79356;SHT31;68825;51.978;5.654;2024-02-04T03:44:45;12.4;77.2
79356;SHT31;68825;51.978;5.654;2024-02-04T03:47:14;12.4;77.2
79356;SHT31;68825;51.978;5.654;2024-02-04T03:49:42;12.3;76.9
79356;SHT31;68825;51.978;5.654;2024-02-04T03:52:11;12.3;77.3
79356;SHT31;68825;51.978;5.654;2024-02-04T03:54:39;12.3;77.6
79356;SHT31;68825;51.978;5.654;2024-02-04T03:57:08;12.3;78.0
79356;SHT31;68825;51.978;5.654;2024-02-04T03:59:36;12.3;78.1
79356;SHT31;68825;51.978;5.654;2024-02-04T04:02:05;12.3;78.3
79356;SHT31;68825;51.978;5.654;2024-02-04T04:04:33;12.3;78.4
79356;SHT31;68825;51.978;5.654;2024-02-04T04:07:04;12.3;78.3
79356;SHT31;68825;51.978;5.654;2024-02-04T04:09:33;12.3;78.3
79356;SHT31;68825;51.978;5.654;2024-02-04T04:12:01;12.3;78.0
79356;SHT31;68825;51.978;5.654;2024-02-04T04:14:30;12.3;78.0
79356;SHT31;68825;51.978;5.654;2024-02-04T04:16:58;12.3;78.1
79356;SHT31;68825;51.978;5.654;2024-02-04T04:19:27;12.3;77.6
79356;SHT31;68825;51.978;5.654;2024-02-04T04:21:56;12.3;77.3
79356;SHT31;68825;51.978;5.654;2024-02-04T04:24:26;12.3;77.3
79356;SHT31;68825;51.978;5.654;2024-02-04T04:26:54;12.4;77.4
79356;SHT31;68825;51.978;5.654;2024-02-04T04:29:23;12.4;77.4
79356;SHT31;68825;51.978;5.654;2024-02-04T04:31:52;12.4;77.4
79356;SHT31;68825;51.978;5.654;2024-02-04T04:34:21;12.4;77.3
79356;SHT31;68825;51.978;5.654;2024-02-04T04:36:50;12.4;77.3
79356;SHT31;68825;51.978;5.654;2024-02-04T04:39:18;12.4;77.5
79356;SHT31;68825;51.978;5.654;2024-02-04T04:41:47;12.4;77.5
79356;SHT31;68825;51.978;5.654;2024-02-04T04:44:15;12.3;77.6
79356;SHT31;68825;51.978;5.654;2024-02-04T04:46:44;12.3;77.7
79356;SHT31;68825;51.978;5.654;2024-02-04T04:49:13;12.3;77.5
79356;SHT31;68825;51.978;5.654;2024-02-04T04:51:45;12.3;77.8
79356;SHT31;68825;51.978;5.654;2024-02-04T04:54:14;12.3;77.7
79356;SHT31;68825;51.978;5.654;2024-02-04T04:56:42;12.3;77.9
79356;SHT31;68825;51.978;5.654;2024-02-04T04:59:11;12.2;78.1
79356;SHT31;68825;51.978;5.654;2024-02-04T05:01:44;12.2;78.3
79356;SHT31;68825;51.978;5.654;2024-02-04T05:04:14;12.2;78.2
79356;SHT31;68825;51.978;5.654;2024-02-04T05:06:45;12.1;78.6
79356;SHT31;68825;51.978;5.654;2024-02-04T05:09:13;12.1;78.6
79356;SHT31;68825;51.978;5.654;2024-02-04T05:11:42;12.1;78.7
79356;SHT31;68825;51.978;5.654;2024-02-04T05:14:11;12.1;78.8
79356;SHT31;68825;51.978;5.654;2024-02-04T05:16:39;12.1;78.8
79356;SHT31;68825;51.978;5.654;2024-02-04T05:19:10;12.0;79.0
79356;SHT31;68825;51.978;5.654;2024-02-04T05:21:39;12.1;79.0
79356;SHT31;68825;51.978;5.654;2024-02-04T05:24:08;12.1;79.1
79356;SHT31;68825;51.978;5.654;2024-02-04T05:26:36;12.1;79.0
79356;SHT31;68825;51.978;5.654;2024-02-04T05:29:05;12.1;78.9
79356;SHT31;68825;51.978;5.654;2024-02-04T05:31:33;12.1;78.9
79356;SHT31;68825;51.978;5.654;2024-02-04T05:34:05;12.1;78.8
79356;SHT31;68825;51.978;5.654;2024-02-04T05:36:34;12.1;78.7
79356;SHT31;68825;51.978;5.654;2024-02-04T05:39:10;12.1;78.8
79356;SHT31;68825;51.978;5.654;2024-02-04T05:41:42;12.1;78.9
79356;SHT31;68825;51.978;5.654;2024-02-04T05:44:10;12.1;78.8
79356;SHT31;68825;51.978;5.654;2024-02-04T05:46:39;12.0;78.4
79356;SHT31;68825;51.978;5.654;2024-02-04T05:49:07;12.0;78.5
79356;SHT31;68825;51.978;5.654;2024-02-04T05:51:39;12.0;78.3
79356;SHT31;68825;51.978;5.654;2024-02-04T05:54:09;12.0;78.5
79356;SHT31;68825;51.978;5.654;2024-02-04T05:56:40;12.0;78.4
79356;SHT31;68825;51.978;5.654;2024-02-04T05:59:09;12.0;78.4
79356;SHT31;68825;51.978;5.654;2024-02-04T06:01:37;12.0;78.4
79356;SHT31;68825;51.978;5.654;2024-02-04T06:04:06;12.0;78.5
79356;SHT31;68825;51.978;5.654;2024-02-04T06:06:34;12.0;78.8
79356;SHT31;68825;51.978;5.654;2024-02-04T06:09:03;12.0;79.1
79356;SHT31;68825;51.978;5.654;2024-02-04T06:11:32;11.9;79.4
79356;SHT31;68825;51.978;5.654;2024-02-04T06:14:01;11.9;79.8
79356;SHT31;68825;51.978;5.654;2024-02-04T06:16:30;11.9;79.9
79356;SHT31;68825;51.978;5.654;2024-02-04T06:19:00;11.9;80.3
79356;SHT31;68825;51.978;5.654;2024-02-04T06:21:29;11.9;80.6
79356;SHT31;68825;51.978;5.654;2024-02-04T06:23:59;11.9;80.8
79356;SHT31;68825;51.978;5.654;2024-02-04T06:26:28;11.8;81.1
79356;SHT31;68825;51.978;5.654;2024-02-04T06:28:57;11.8;81.4
79356;SHT31;68825;51.978;5.654;2024-02-04T06:31:25;11.8;81.4
79356;SHT31;68825;51.978;5.654;2024-02-04T06:33:54;11.8;81.6
79356;SHT31;68825;51.978;5.654;2024-02-04T06:36:22;11.8;81.7
79356;SHT31;68825;51.978;5.654;2024-02-04T06:38:51;11.8;82.0
79356;SHT31;68825;51.978;5.654;2024-02-04T06:41:19;11.8;81.9
79356;SHT31;68825;51.978;5.654;2024-02-04T06:43:50;11.8;81.9
79356;SHT31;68825;51.978;5.654;2024-02-04T06:46:25;11.8;81.8
79356;SHT31;68825;51.978;5.654;2024-02-04T06:48:54;11.8;81.9
79356;SHT31;68825;51.978;5.654;2024-02-04T06:51:25;11.8;82.1
79356;SHT31;68825;51.978;5.654;2024-02-04T06:53:53;11.8;82.2
79356;SHT31;68825;51.978;5.654;2024-02-04T06:56:22;11.8;82.3
79356;SHT31;68825;51.978;5.654;2024-02-04T06:58:51;11.9;82.3
79356;SHT31;68825;51.978;5.654;2024-02-04T07:01:20;11.9;82.3
79356;SHT31;68825;51.978;5.654;2024-02-04T07:03:48;11.8;82.3
79356;SHT31;68825;51.978;5.654;2024-02-04T07:06:17;11.9;82.3
79356;SHT31;68825;51.978;5.654;2024-02-04T07:08:46;11.9;82.3
79356;SHT31;68825;51.978;5.654;2024-02-04T07:11:15;11.9;82.0
79356;SHT31;68825;51.978;5.654;2024-02-04T07:13:44;11.9;82.1
79356;SHT31;68825;51.978;5.654;2024-02-04T07:16:12;11.9;82.2
79356;SHT31;68825;51.978;5.654;2024-02-04T07:18:41;11.9;82.2
79356;SHT31;68825;51.978;5.654;2024-02-04T07:21:10;11.9;82.3
79356;SHT31;68825;51.978;5.654;2024-02-04T07:23:38;11.9;82.4
79356;SHT31;68825;51.978;5.654;2024-02-04T07:26:06;11.9;82.4
79356;SHT31;68825;51.978;5.654;2024-02-04T07:28:35;11.9;82.2
79356;SHT31;68825;51.978;5.654;2024-02-04T07:31:05;11.9;82.1
79356;SHT31;68825;51.978;5.654;2024-02-04T07:33:33;11.9;81.8
79356;SHT31;68825;51.978;5.654;2024-02-04T07:36:03;11.9;81.7
79356;SHT31;68825;51.978;5.654;2024-02-04T07:38:31;11.9;81.6
79356;SHT31;68825;51.978;5.654;2024-02-04T07:41:00;11.9;81.4
79356;SHT31;68825;51.978;5.654;2024-02-04T07:43:28;12.0;81.5
79356;SHT31;68825;51.978;5.654;2024-02-04T07:45:57;12.0;81.5
79356;SHT31;68825;51.978;5.654;2024-02-04T07:48:27;12.0;81.4
79356;SHT31;68825;51.978;5.654;2024-02-04T07:50:56;12.0;81.3
79356;SHT31;68825;51.978;5.654;2024-02-04T07:53:25;12.0;81.4
79356;SHT31;68825;51.978;5.654;2024-02-04T07:55:53;12.0;81.3
79356;SHT31;68825;51.978;5.654;2024-02-04T07:58:22;12.0;81.2
79356;SHT31;68825;51.978;5.654;2024-02-04T08:00:50;12.0;81.1
79356;SHT31;68825;51.978;5.654;2024-02-04T08:03:19;12.0;81.1
79356;SHT31;68825;51.978;5.654;2024-02-04T08:05:47;12.0;80.9
79356;SHT31;68825;51.978;5.654;2024-02-04T08:08:16;12.0;80.9
79356;SHT31;68825;51.978;5.654;2024-02-04T08:10:45;12.0;80.8
79356;SHT31;68825;51.978;5.654;2024-02-04T08:13:14;12.0;80.6
79356;SHT31;68825;51.978;5.654;2024-02-04T08:15:42;12.0;80.5
79356;SHT31;68825;51.978;5.654;2024-02-04T08:18:11;12.0;80.5
79356;SHT31;68825;51.978;5.654;2024-02-04T08:20:39;12.0;80.3
79356;SHT31;68825;51.978;5.654;2024-02-04T08:23:09;12.0;80.3
79356;SHT31;68825;51.978;5.654;2024-02-04T08:25:38;12.0;80.3
79356;SHT31;68825;51.978;5.654;2024-02-04T08:28:06;12.0;80.3
79356;SHT31;68825;51.978;5.654;2024-02-04T08:30:35;12.0;80.2
79356;SHT31;68825;51.978;5.654;2024-02-04T08:33:04;12.0;80.2
79356;SHT31;68825;51.978;5.654;2024-02-04T08:35:33;12.0;80.3
79356;SHT31;68825;51.978;5.654;2024-02-04T08:38:04;12.0;80.3
79356;SHT31;68825;51.978;5.654;2024-02-04T08:40:32;12.0;80.1
79356;SHT31;68825;51.978;5.654;2024-02-04T08:43:01;12.0;80.4
79356;SHT31;68825;51.978;5.654;2024-02-04T08:45:31;12.0;80.2
79356;SHT31;68825;51.978;5.654;2024-02-04T08:48:00;12.0;80.1
79356;SHT31;68825;51.978;5.654;2024-02-04T08:50:30;12.0;80.2
79356;SHT31;68825;51.978;5.654;2024-02-04T08:52:58;12.0;80.2
79356;SHT31;68825;51.978;5.654;2024-02-04T08:55:27;12.0;80.3
79356;SHT31;68825;51.978;5.654;2024-02-04T08:57:55;12.0;80.1
79356;SHT31;68825;51.978;5.654;2024-02-04T09:00:24;11.9;80.2
79356;SHT31;68825;51.978;5.654;2024-02-04T09:02:53;11.9;80.4
79356;SHT31;68825;51.978;5.654;2024-02-04T09:05:22;11.9;80.8
79356;SHT31;68825;51.978;5.654;2024-02-04T09:07:50;12.0;80.9
79356;SHT31;68825;51.978;5.654;2024-02-04T09:10:21;12.0;80.9
79356;SHT31;68825;51.978;5.654;2024-02-04T09:12:50;12.0;81.0
79356;SHT31;68825;51.978;5.654;2024-02-04T09:15:18;12.0;81.2
79356;SHT31;68825;51.978;5.654;2024-02-04T09:17:49;12.0;81.3
79356;SHT31;68825;51.978;5.654;2024-02-04T09:20:17;12.0;81.4
79356;SHT31;68825;51.978;5.654;2024-02-04T09:22:45;12.0;81.2
79356;SHT31;68825;51.978;5.654;2024-02-04T09:25:14;12.0;81.2
79356;SHT31;68825;51.978;5.654;2024-02-04T09:27:43;12.0;81.3
79356;SHT31;68825;51.978;5.654;2024-02-04T09:30:12;12.1;81.5
79356;SHT31;68825;51.978;5.654;2024-02-04T09:32:42;12.1;81.5
79356;SHT31;68825;51.978;5.654;2024-02-04T09:35:11;12.1;81.3
79356;SHT31;68825;51.978;5.654;2024-02-04T09:37:39;12.1;81.5
79356;SHT31;68825;51.978;5.654;2024-02-04T09:40:09;12.1;81.3
79356;SHT31;68825;51.978;5.654;2024-02-04T09:42:40;12.1;81.3
79356;SHT31;68825;51.978;5.654;2024-02-04T09:45:09;12.2;81.3
79356;SHT31;68825;51.978;5.654;2024-02-04T09:47:40;12.2;81.4
79356;SHT31;68825;51.978;5.654;2024-02-04T09:50:11;12.2;81.4
79356;SHT31;68825;51.978;5.654;2024-02-04T09:52:40;12.2;81.5
79356;SHT31;68825;51.978;5.654;2024-02-04T09:55:13;12.3;81.5
79356;SHT31;68825;51.978;5.654;2024-02-04T09:57:44;12.3;81.0
79356;SHT31;68825;51.978;5.654;2024-02-04T10:00:13;12.3;81.1
79356;SHT31;68825;51.978;5.654;2024-02-04T10:02:43;12.3;81.0
79356;SHT31;68825;51.978;5.654;2024-02-04T10:05:12;12.4;81.2
79356;SHT31;68825;51.978;5.654;2024-02-04T10:07:41;12.4;80.8
79356;SHT31;68825;51.978;5.654;2024-02-04T10:10:11;12.4;80.8
79356;SHT31;68825;51.978;5.654;2024-02-04T10:12:40;12.4;80.8
79356;SHT31;68825;51.978;5.654;2024-02-04T10:15:11;12.4;80.5
79356;SHT31;68825;51.978;5.654;2024-02-04T10:17:41;12.5;80.3
79356;SHT31;68825;51.978;5.654;2024-02-04T10:20:11;12.5;80.3
79356;SHT31;68825;51.978;5.654;2024-02-04T10:22:40;12.5;80.2
79356;SHT31;68825;51.978;5.654;2024-02-04T10:25:10;12.5;80.0
79356;SHT31;68825;51.978;5.654;2024-02-04T10:27:41;12.6;79.7
79356;SHT31;68825;51.978;5.654;2024-02-04T10:30:15;12.6;79.8
79356;SHT31;68825;51.978;5.654;2024-02-04T10:32:46;12.6;79.3
79356;SHT31;68825;51.978;5.654;2024-02-04T10:35:17;12.6;79.2
79356;SHT31;68825;51.978;5.654;2024-02-04T10:37:46;12.7;78.6
79356;SHT31;68825;51.978;5.654;2024-02-04T10:40:15;12.7;79.4
79356;SHT31;68825;51.978;5.654;2024-02-04T10:42:44;12.7;79.2
79356;SHT31;68825;51.978;5.654;2024-02-04T10:45:17;12.7;79.0
79356;SHT31;68825;51.978;5.654;2024-02-04T10:47:55;12.8;78.7
79356;SHT31;68825;51.978;5.654;2024-02-04T10:50:24;12.8;78.4
79356;SHT31;68825;51.978;5.654;2024-02-04T10:52:58;12.9;77.9
79356;SHT31;68825;51.978;5.654;2024-02-04T10:55:31;12.9;77.5
79356;SHT31;68825;51.978;5.654;2024-02-04T10:58:01;12.9;77.5
79356;SHT31;68825;51.978;5.654;2024-02-04T11:00:30;12.9;76.9
79356;SHT31;68825;51.978;5.654;2024-02-04T11:02:59;12.9;77.6
79356;SHT31;68825;51.978;5.654;2024-02-04T11:05:30;12.9;78.1
79356;SHT31;68825;51.978;5.654;2024-02-04T11:08:01;12.9;78.3
79356;SHT31;68825;51.978;5.654;2024-02-04T11:10:34;12.9;78.9
79356;SHT31;68825;51.978;5.654;2024-02-04T11:13:05;12.8;79.6
79356;SHT31;68825;51.978;5.654;2024-02-04T11:15:38;12.8;79.7
79356;SHT31;68825;51.978;5.654;2024-02-04T11:19:15;12.8;80.1
79356;SHT31;68825;51.978;5.654;2024-02-04T11:22:08;12.7;80.5
79356;SHT31;68825;51.978;5.654;2024-02-04T11:24:58;12.7;80.9
79356;SHT31;68825;51.978;5.654;2024-02-04T11:27:28;12.6;81.2
79356;SHT31;68825;51.978;5.654;2024-02-04T11:29:57;12.6;81.5
79356;SHT31;68825;51.978;5.654;2024-02-04T11:32:26;12.6;81.6
79356;SHT31;68825;51.978;5.654;2024-02-04T11:34:55;12.6;81.6
79356;SHT31;68825;51.978;5.654;2024-02-04T11:37:29;12.6;81.4
79356;SHT31;68825;51.978;5.654;2024-02-04T11:39:58;12.6;81.7
79356;SHT31;68825;51.978;5.654;2024-02-04T11:42:31;12.6;82.2
79356;SHT31;68825;51.978;5.654;2024-02-04T11:45:09;12.5;82.5
79356;SHT31;68825;51.978;5.654;2024-02-04T11:47:40;12.5;82.6
79356;SHT31;68825;51.978;5.654;2024-02-04T11:50:09;12.5;82.6
79356;SHT31;68825;51.978;5.654;2024-02-04T11:52:39;12.5;82.6
79356;SHT31;68825;51.978;5.654;2024-02-04T11:55:12;12.6;82.8
79356;SHT31;68825;51.978;5.654;2024-02-04T11:57:41;12.6;82.4
79356;SHT31;68825;51.978;5.654;2024-02-04T12:00:14;12.6;82.4
79356;SHT31;68825;51.978;5.654;2024-02-04T12:02:43;12.6;82.2
79356;SHT31;68825;51.978;5.654;2024-02-04T12:05:12;12.6;82.2
79356;SHT31;68825;51.978;5.654;2024-02-04T12:07:44;12.6;82.1
79356;SHT31;68825;51.978;5.654;2024-02-04T12:10:16;12.6;81.9
79356;SHT31;68825;51.978;5.654;2024-02-04T12:12:45;12.6;82.1
79356;SHT31;68825;51.978;5.654;2024-02-04T12:15:14;12.6;82.0
79356;SHT31;68825;51.978;5.654;2024-02-04T12:17:42;12.5;82.1
79356;SHT31;68825;51.978;5.654;2024-02-04T12:20:11;12.5;82.0
79356;SHT31;68825;51.978;5.654;2024-02-04T12:22:40;12.5;82.1
79356;SHT31;68825;51.978;5.654;2024-02-04T12:25:10;12.6;82.1
79356;SHT31;68825;51.978;5.654;2024-02-04T12:27:39;12.6;81.9
79356;SHT31;68825;51.978;5.654;2024-02-04T12:30:09;12.6;82.0
79356;SHT31;68825;51.978;5.654;2024-02-04T12:32:37;12.6;81.8
79356;SHT31;68825;51.978;5.654;2024-02-04T12:35:13;12.6;81.8
79356;SHT31;68825;51.978;5.654;2024-02-04T12:37:52;12.6;82.1
79356;SHT31;68825;51.978;5.654;2024-02-04T12:40:27;12.6;81.7
79356;SHT31;68825;51.978;5.654;2024-02-04T12:42:57;12.6;81.4
79356;SHT31;68825;51.978;5.654;2024-02-04T12:45:26;12.6;81.4
79356;SHT31;68825;51.978;5.654;2024-02-04T12:47:56;12.6;81.5
79356;SHT31;68825;51.978;5.654;2024-02-04T12:50:25;12.6;80.7
79356;SHT31;68825;51.978;5.654;2024-02-04T12:53:04;12.6;80.5
79356;SHT31;68825;51.978;5.654;2024-02-04T12:55:34;12.6;80.5
79356;SHT31;68825;51.978;5.654;2024-02-04T12:58:04;12.6;80.4
79356;SHT31;68825;51.978;5.654;2024-02-04T13:00:35;12.6;80.3
79356;SHT31;68825;51.978;5.654;2024-02-04T13:03:07;12.6;80.0
79356;SHT31;68825;51.978;5.654;2024-02-04T13:05:37;12.6;80.4
79356;SHT31;68825;51.978;5.654;2024-02-04T13:08:06;12.6;80.0
79356;SHT31;68825;51.978;5.654;2024-02-04T13:10:36;12.6;80.3
79356;SHT31;68825;51.978;5.654;2024-02-04T13:13:07;12.6;80.3
79356;SHT31;68825;51.978;5.654;2024-02-04T13:15:38;12.6;80.2
79356;SHT31;68825;51.978;5.654;2024-02-04T13:18:08;12.6;80.3
79356;SHT31;68825;51.978;5.654;2024-02-04T13:20:38;12.6;80.5
79356;SHT31;68825;51.978;5.654;2024-02-04T13:23:08;12.6;80.5
79356;SHT31;68825;51.978;5.654;2024-02-04T13:25:37;12.6;80.7
79356;SHT31;68825;51.978;5.654;2024-02-04T13:28:06;12.6;81.2
79356;SHT31;68825;51.978;5.654;2024-02-04T13:30:34;12.6;81.3
79356;SHT31;68825;51.978;5.654;2024-02-04T13:33:03;12.6;81.2
79356;SHT31;68825;51.978;5.654;2024-02-04T13:35:32;12.5;81.2
79356;SHT31;68825;51.978;5.654;2024-02-04T13:38:00;12.5;81.1
79356;SHT31;68825;51.978;5.654;2024-02-04T13:40:30;12.6;81.1
79356;SHT31;68825;51.978;5.654;2024-02-04T13:42:59;12.6;80.7
79356;SHT31;68825;51.978;5.654;2024-02-04T13:45:28;12.6;80.8
79356;SHT31;68825;51.978;5.654;2024-02-04T13:47:56;12.6;81.4
79356;SHT31;68825;51.978;5.654;2024-02-04T13:50:26;12.6;80.8
79356;SHT31;68825;51.978;5.654;2024-02-04T13:52:56;12.6;81.1
79356;SHT31;68825;51.978;5.654;2024-02-04T13:55:25;12.6;81.1
79356;SHT31;68825;51.978;5.654;2024-02-04T13:57:54;12.6;81.0
79356;SHT31;68825;51.978;5.654;2024-02-04T14:00:22;12.6;80.8
79356;SHT31;68825;51.978;5.654;2024-02-04T14:02:51;12.6;80.5
79356;SHT31;68825;51.978;5.654;2024-02-04T14:05:19;12.6;80.4
79356;SHT31;68825;51.978;5.654;2024-02-04T14:07:50;12.6;80.9
79356;SHT31;68825;51.978;5.654;2024-02-04T14:10:20;12.7;80.8
79356;SHT31;68825;51.978;5.654;2024-02-04T14:12:49;12.7;80.8
79356;SHT31;68825;51.978;5.654;2024-02-04T14:15:17;12.7;80.5
79356;SHT31;68825;51.978;5.654;2024-02-04T14:17:48;12.7;80.5
79356;SHT31;68825;51.978;5.654;2024-02-04T14:20:17;12.7;80.3
79356;SHT31;68825;51.978;5.654;2024-02-04T14:22:45;12.7;80.3
79356;SHT31;68825;51.978;5.654;2024-02-04T14:25:14;12.7;80.1
79356;SHT31;68825;51.978;5.654;2024-02-04T14:27:42;12.8;79.9
79356;SHT31;68825;51.978;5.654;2024-02-04T14:30:12;12.8;79.9
79356;SHT31;68825;51.978;5.654;2024-02-04T14:32:40;12.8;79.7
79356;SHT31;68825;51.978;5.654;2024-02-04T14:35:10;12.8;79.8
79356;SHT31;68825;51.978;5.654;2024-02-04T14:37:38;12.8;79.4
79356;SHT31;68825;51.978;5.654;2024-02-04T14:40:10;12.8;79.6
79356;SHT31;68825;51.978;5.654;2024-02-04T14:42:39;12.8;79.6
79356;SHT31;68825;51.978;5.654;2024-02-04T14:45:09;12.8;79.1
79356;SHT31;68825;51.978;5.654;2024-02-04T14:47:39;12.8;79.2
79356;SHT31;68825;51.978;5.654;2024-02-04T14:50:08;12.8;79.3
79356;SHT31;68825;51.978;5.654;2024-02-04T14:52:37;12.8;79.4
79356;SHT31;68825;51.978;5.654;2024-02-04T14:55:06;12.8;79.2
79356;SHT31;68825;51.978;5.654;2024-02-04T14:57:36;12.8;79.1
79356;SHT31;68825;51.978;5.654;2024-02-04T15:00:05;12.8;79.0
79356;SHT31;68825;51.978;5.654;2024-02-04T15:02:36;12.8;78.8
79356;SHT31;68825;51.978;5.654;2024-02-04T15:05:06;12.8;78.7
79356;SHT31;68825;51.978;5.654;2024-02-04T15:07:37;12.8;78.4
79356;SHT31;68825;51.978;5.654;2024-02-04T15:10:07;12.8;78.5
79356;SHT31;68825;51.978;5.654;2024-02-04T15:12:37;12.8;78.6
79356;SHT31;68825;51.978;5.654;2024-02-04T15:15:06;12.9;78.3
79356;SHT31;68825;51.978;5.654;2024-02-04T15:17:36;12.9;78.5
79356;SHT31;68825;51.978;5.654;2024-02-04T15:20:05;12.9;78.4
79356;SHT31;68825;51.978;5.654;2024-02-04T15:22:36;12.9;78.7
79356;SHT31;68825;51.978;5.654;2024-02-04T15:25:06;12.9;78.5
79356;SHT31;68825;51.978;5.654;2024-02-04T15:27:38;12.9;78.3
79356;SHT31;68825;51.978;5.654;2024-02-04T15:30:20;12.9;78.2
79356;SHT31;68825;51.978;5.654;2024-02-04T15:32:49;13.0;78.1
79356;SHT31;68825;51.978;5.654;2024-02-04T15:35:21;13.0;78.2
79356;SHT31;68825;51.978;5.654;2024-02-04T15:37:51;13.0;78.7
79356;SHT31;68825;51.978;5.654;2024-02-04T15:40:19;13.0;78.4
79356;SHT31;68825;51.978;5.654;2024-02-04T15:42:48;13.0;78.2
79356;SHT31;68825;51.978;5.654;2024-02-04T15:45:16;13.0;77.8
79356;SHT31;68825;51.978;5.654;2024-02-04T15:47:49;13.0;77.6
79356;SHT31;68825;51.978;5.654;2024-02-04T15:50:20;13.0;77.7
79356;SHT31;68825;51.978;5.654;2024-02-04T15:52:50;13.0;77.4
79356;SHT31;68825;51.978;5.654;2024-02-04T15:55:19;13.0;77.3
79356;SHT31;68825;51.978;5.654;2024-02-04T15:57:51;13.0;77.3
79356;SHT31;68825;51.978;5.654;2024-02-04T16:00:21;13.0;77.4
79356;SHT31;68825;51.978;5.654;2024-02-04T16:02:53;13.0;77.2
79356;SHT31;68825;51.978;5.654;2024-02-04T16:05:23;13.0;77.3
79356;SHT31;68825;51.978;5.654;2024-02-04T16:07:52;13.1;77.1
79356;SHT31;68825;51.978;5.654;2024-02-04T16:10:26;13.1;77.6
79356;SHT31;68825;51.978;5.654;2024-02-04T16:12:57;13.1;77.1
79356;SHT31;68825;51.978;5.654;2024-02-04T16:15:29;13.1;77.2
79356;SHT31;68825;51.978;5.654;2024-02-04T16:17:58;13.1;76.9